sensor_id;sensor_type;location;lat;lon;timestamp;P1;durP1;ratioP1;P2;durP2;ratioP2
73100;SDS011;61288;53.446;-2.266;2022-09-06T00:01:41;2.60;;;1.17;;
73100;SDS011;61288;53.446;-2.266;2022-09-06T00:04:07;3.72;;;1.20;;
73100;SDS011;61288;53.446;-2.266;2022-09-06T00:06:32;6.28;;;1.75;;
73100;SDS011;61288;53.446;-2.266;2022-09-06T00:08:59;4.60;;;1.45;;
73100;SDS011;61288;53.446;-2.266;2022-09-06T00:11:25;5.85;;;1.67;;
73100;SDS011;61288;53.446;-2.266;2022-09-06T00:13:51;2.67;;;1.35;;
73100;SDS011;61288;53.446;-2.266;2022-09-06T00:16:18;2.60;;;1.05;;
73100;SDS011;61288;53.446;-2.266;2022-09-06T00:18:45;2.58;;;1.10;;
73100;SDS011;61288;53.446;-2.266;2022-09-06T00:21:21;4.82;;;1.25;;
73100;SDS011;61288;53.446;-2.266;2022-09-06T00:23:51;2.42;;;1.27;;
73100;SDS011;61288;53.446;-2.266;2022-09-06T00:26:17;2.33;;;1.30;;
73100;SDS011;61288;53.446;-2.266;2022-09-06T00:28:43;3.88;;;1.38;;
73100;SDS011;61288;53.446;-2.266;2022-09-06T00:31:13;5.47;;;1.30;;
73100;SDS011;61288;53.446;-2.266;2022-09-06T00:33:41;2.75;;;1.20;;
73100;SDS011;61288;53.446;-2.266;2022-09-06T00:36:07;6.15;;;1.58;;
73100;SDS011;61288;53.446;-2.266;2022-09-06T00:38:33;3.60;;;1.30;;
73100;SDS011;61288;53.446;-2.266;2022-09-06T00:40:59;2.47;;;1.30;;
73100;SDS011;61288;53.446;-2.266;2022-09-06T00:43:25;2.10;;;1.30;;
73100;SDS011;61288;53.446;-2.266;2022-09-06T00:45:51;2.83;;;1.30;;
73100;SDS011;61288;53.446;-2.266;2022-09-06T00:48:18;3.20;;;1.30;;
73100;SDS011;61288;53.446;-2.266;2022-09-06T00:50:46;4.93;;;1.70;;
73100;SDS011;61288;53.446;-2.266;2022-09-06T00:53:14;3.00;;;1.50;;
73100;SDS011;61288;53.446;-2.266;2022-09-06T00:55:40;3.45;;;1.52;;
73100;SDS011;61288;53.446;-2.266;2022-09-06T00:58:07;3.58;;;1.58;;
73100;SDS011;61288;53.446;-2.266;2022-09-06T01:00:33;5.60;;;1.50;;
73100;SDS011;61288;53.446;-2.266;2022-09-06T01:02:59;4.45;;;1.75;;
73100;SDS011;61288;53.446;-2.266;2022-09-06T01:05:27;3.88;;;1.60;;
73100;SDS011;61288;53.446;-2.266;2022-09-06T01:08:20;3.45;;;1.60;;
73100;SDS011;61288;53.446;-2.266;2022-09-06T01:14:02;3.00;;;1.50;;
73100;SDS011;61288;53.446;-2.266;2022-09-06T01:19:35;4.60;;;1.50;;
73100;SDS011;61288;53.446;-2.266;2022-09-06T01:22:34;3.80;;;1.30;;
73100;SDS011;61288;53.446;-2.266;2022-09-06T01:30:51;5.32;;;2.03;;
73100;SDS011;61288;53.446;-2.266;2022-09-06T01:36:06;5.05;;;1.90;;
73100;SDS011;61288;53.446;-2.266;2022-09-06T01:38:34;5.03;;;1.92;;
73100;SDS011;61288;53.446;-2.266;2022-09-06T01:41:01;7.20;;;2.33;;
73100;SDS011;61288;53.446;-2.266;2022-09-06T01:43:29;5.32;;;1.73;;
73100;SDS011;61288;53.446;-2.266;2022-09-06T01:57:23;7.72;;;2.10;;
73100;SDS011;61288;53.446;-2.266;2022-09-06T02:08:03;5.03;;;1.67;;
73100;SDS011;61288;53.446;-2.266;2022-09-06T02:13:20;6.95;;;1.85;;
73100;SDS011;61288;53.446;-2.266;2022-09-06T02:15:53;4.72;;;1.70;;
73100;SDS011;61288;53.446;-2.266;2022-09-06T02:18:29;5.80;;;2.03;;
73100;SDS011;61288;53.446;-2.266;2022-09-06T02:20:58;6.10;;;1.92;;
73100;SDS011;61288;53.446;-2.266;2022-09-06T02:23:27;5.40;;;1.90;;
73100;SDS011;61288;53.446;-2.266;2022-09-06T02:25:58;3.90;;;1.70;;
73100;SDS011;61288;53.446;-2.266;2022-09-06T02:28:31;5.70;;;1.95;;
73100;SDS011;61288;53.446;-2.266;2022-09-06T02:30:58;5.18;;;1.60;;
73100;SDS011;61288;53.446;-2.266;2022-09-06T02:33:29;6.72;;;1.75;;
73100;SDS011;61288;53.446;-2.266;2022-09-06T02:36:00;6.53;;;1.80;;
73100;SDS011;61288;53.446;-2.266;2022-09-06T02:38:28;4.88;;;1.80;;
73100;SDS011;61288;53.446;-2.266;2022-09-06T02:40:55;5.78;;;1.83;;
73100;SDS011;61288;53.446;-2.266;2022-09-06T02:43:22;5.70;;;1.88;;
73100;SDS011;61288;53.446;-2.266;2022-09-06T02:45:47;4.68;;;1.70;;
73100;SDS011;61288;53.446;-2.266;2022-09-06T02:48:13;5.45;;;1.80;;
73100;SDS011;61288;53.446;-2.266;2022-09-06T02:50:39;4.97;;;1.73;;
73100;SDS011;61288;53.446;-2.266;2022-09-06T02:53:06;12.57;;;2.25;;
73100;SDS011;61288;53.446;-2.266;2022-09-06T02:55:34;4.57;;;1.60;;
73100;SDS011;61288;53.446;-2.266;2022-09-06T02:58:01;4.20;;;1.70;;
73100;SDS011;61288;53.446;-2.266;2022-09-06T03:00:27;4.72;;;1.75;;
73100;SDS011;61288;53.446;-2.266;2022-09-06T03:02:53;4.65;;;1.85;;
73100;SDS011;61288;53.446;-2.266;2022-09-06T03:05:23;5.55;;;1.73;;
73100;SDS011;61288;53.446;-2.266;2022-09-06T03:07:50;4.80;;;1.83;;
73100;SDS011;61288;53.446;-2.266;2022-09-06T03:10:16;4.32;;;1.70;;
73100;SDS011;61288;53.446;-2.266;2022-09-06T03:12:42;4.72;;;1.70;;
73100;SDS011;61288;53.446;-2.266;2022-09-06T03:15:09;3.15;;;1.17;;
73100;SDS011;61288;53.446;-2.266;2022-09-06T03:17:36;4.43;;;1.60;;
73100;SDS011;61288;53.446;-2.266;2022-09-06T03:20:02;3.33;;;1.13;;
73100;SDS011;61288;53.446;-2.266;2022-09-06T03:22:29;4.13;;;1.58;;
73100;SDS011;61288;53.446;-2.266;2022-09-06T03:24:55;4.35;;;1.45;;
73100;SDS011;61288;53.446;-2.266;2022-09-06T03:27:21;4.18;;;1.35;;
73100;SDS011;61288;53.446;-2.266;2022-09-06T03:29:47;2.75;;;1.20;;
73100;SDS011;61288;53.446;-2.266;2022-09-06T03:32:13;2.83;;;1.10;;
73100;SDS011;61288;53.446;-2.266;2022-09-06T03:34:38;1.77;;;1.20;;
73100;SDS011;61288;53.446;-2.266;2022-09-06T03:37:04;2.30;;;1.15;;
73100;SDS011;61288;53.446;-2.266;2022-09-06T03:39:29;2.78;;;1.10;;
73100;SDS011;61288;53.446;-2.266;2022-09-06T03:41:55;2.25;;;1.27;;
73100;SDS011;61288;53.446;-2.266;2022-09-06T03:44:20;1.40;;;1.02;;
73100;SDS011;61288;53.446;-2.266;2022-09-06T03:46:46;3.97;;;1.40;;
73100;SDS011;61288;53.446;-2.266;2022-09-06T03:49:11;3.50;;;1.40;;
73100;SDS011;61288;53.446;-2.266;2022-09-06T03:51:37;2.42;;;1.10;;
73100;SDS011;61288;53.446;-2.266;2022-09-06T03:54:02;2.97;;;1.40;;
73100;SDS011;61288;53.446;-2.266;2022-09-06T03:56:28;3.55;;;1.45;;
73100;SDS011;61288;53.446;-2.266;2022-09-06T03:58:53;7.20;;;1.45;;
73100;SDS011;61288;53.446;-2.266;2022-09-06T04:01:19;2.92;;;1.40;;
73100;SDS011;61288;53.446;-2.266;2022-09-06T04:03:45;3.88;;;1.40;;
73100;SDS011;61288;53.446;-2.266;2022-09-06T04:06:11;4.13;;;1.40;;
73100;SDS011;61288;53.446;-2.266;2022-09-06T04:08:37;3.67;;;1.60;;
73100;SDS011;61288;53.446;-2.266;2022-09-06T04:11:03;4.30;;;1.42;;
73100;SDS011;61288;53.446;-2.266;2022-09-06T04:13:30;4.75;;;1.60;;
73100;SDS011;61288;53.446;-2.266;2022-09-06T04:15:57;3.50;;;1.65;;
73100;SDS011;61288;53.446;-2.266;2022-09-06T04:18:23;2.90;;;1.42;;
73100;SDS011;61288;53.446;-2.266;2022-09-06T04:20:50;2.70;;;1.40;;
73100;SDS011;61288;53.446;-2.266;2022-09-06T04:23:17;3.33;;;1.42;;
73100;SDS011;61288;53.446;-2.266;2022-09-06T04:25:44;3.92;;;1.48;;
73100;SDS011;61288;53.446;-2.266;2022-09-06T04:28:11;4.20;;;1.60;;
73100;SDS011;61288;53.446;-2.266;2022-09-06T04:33:12;4.43;;;1.60;;
73100;SDS011;61288;53.446;-2.266;2022-09-06T04:35:37;2.63;;;1.40;;
73100;SDS011;61288;53.446;-2.266;2022-09-06T04:38:03;5.10;;;1.60;;
73100;SDS011;61288;53.446;-2.266;2022-09-06T04:40:30;4.40;;;1.58;;
73100;SDS011;61288;53.446;-2.266;2022-09-06T04:42:55;4.20;;;1.52;;
73100;SDS011;61288;53.446;-2.266;2022-09-06T04:45:21;3.20;;;1.60;;
73100;SDS011;61288;53.446;-2.266;2022-09-06T04:47:46;7.30;;;2.03;;
73100;SDS011;61288;53.446;-2.266;2022-09-06T04:50:14;3.47;;;1.88;;
73100;SDS011;61288;53.446;-2.266;2022-09-06T04:52:40;5.60;;;2.10;;
73100;SDS011;61288;53.446;-2.266;2022-09-06T04:55:05;7.00;;;2.58;;
73100;SDS011;61288;53.446;-2.266;2022-09-06T04:57:31;4.85;;;2.17;;
73100;SDS011;61288;53.446;-2.266;2022-09-06T04:59:56;5.13;;;2.33;;
73100;SDS011;61288;53.446;-2.266;2022-09-06T05:02:22;7.90;;;2.97;;
73100;SDS011;61288;53.446;-2.266;2022-09-06T05:04:47;6.30;;;2.63;;
73100;SDS011;61288;53.446;-2.266;2022-09-06T05:07:13;7.97;;;2.83;;
73100;SDS011;61288;53.446;-2.266;2022-09-06T05:09:38;7.07;;;3.00;;
73100;SDS011;61288;53.446;-2.266;2022-09-06T05:12:04;6.63;;;2.72;;
73100;SDS011;61288;53.446;-2.266;2022-09-06T05:14:29;8.68;;;2.58;;
73100;SDS011;61288;53.446;-2.266;2022-09-06T05:16:55;6.97;;;2.83;;
73100;SDS011;61288;53.446;-2.266;2022-09-06T05:19:21;11.35;;;2.53;;
73100;SDS011;61288;53.446;-2.266;2022-09-06T05:21:47;6.75;;;2.22;;
73100;SDS011;61288;53.446;-2.266;2022-09-06T05:24:15;8.10;;;2.78;;
73100;SDS011;61288;53.446;-2.266;2022-09-06T05:26:40;6.82;;;2.83;;
73100;SDS011;61288;53.446;-2.266;2022-09-06T05:29:06;7.43;;;2.63;;
73100;SDS011;61288;53.446;-2.266;2022-09-06T05:31:32;7.80;;;2.78;;
73100;SDS011;61288;53.446;-2.266;2022-09-06T05:33:59;8.05;;;2.75;;
73100;SDS011;61288;53.446;-2.266;2022-09-06T05:36:25;8.50;;;3.10;;
73100;SDS011;61288;53.446;-2.266;2022-09-06T05:38:52;8.25;;;3.25;;
73100;SDS011;61288;53.446;-2.266;2022-09-06T05:41:19;7.57;;;3.13;;
73100;SDS011;61288;53.446;-2.266;2022-09-06T05:43:45;8.80;;;3.90;;
73100;SDS011;61288;53.446;-2.266;2022-09-06T05:46:12;10.18;;;3.63;;
73100;SDS011;61288;53.446;-2.266;2022-09-06T05:48:38;8.85;;;3.65;;
73100;SDS011;61288;53.446;-2.266;2022-09-06T05:51:04;11.05;;;4.05;;
73100;SDS011;61288;53.446;-2.266;2022-09-06T05:53:33;10.70;;;4.70;;
73100;SDS011;61288;53.446;-2.266;2022-09-06T05:56:03;9.38;;;4.30;;
73100;SDS011;61288;53.446;-2.266;2022-09-06T05:58:30;13.07;;;4.95;;
73100;SDS011;61288;53.446;-2.266;2022-09-06T06:03:59;12.60;;;5.32;;
73100;SDS011;61288;53.446;-2.266;2022-09-06T06:06:27;9.93;;;4.70;;
73100;SDS011;61288;53.446;-2.266;2022-09-06T06:08:54;12.27;;;5.63;;
73100;SDS011;61288;53.446;-2.266;2022-09-06T06:11:20;10.30;;;5.03;;
73100;SDS011;61288;53.446;-2.266;2022-09-06T06:13:47;11.90;;;5.75;;
73100;SDS011;61288;53.446;-2.266;2022-09-06T06:16:16;12.85;;;5.88;;
73100;SDS011;61288;53.446;-2.266;2022-09-06T06:18:43;13.43;;;5.90;;
73100;SDS011;61288;53.446;-2.266;2022-09-06T06:21:13;10.98;;;5.13;;
73100;SDS011;61288;53.446;-2.266;2022-09-06T06:23:51;12.20;;;5.40;;
73100;SDS011;61288;53.446;-2.266;2022-09-06T06:26:22;12.88;;;5.90;;
73100;SDS011;61288;53.446;-2.266;2022-09-06T06:28:49;14.73;;;6.40;;
73100;SDS011;61288;53.446;-2.266;2022-09-06T06:31:17;13.95;;;6.35;;
73100;SDS011;61288;53.446;-2.266;2022-09-06T06:33:44;12.70;;;5.88;;
73100;SDS011;61288;53.446;-2.266;2022-09-06T06:38:39;14.55;;;7.47;;
73100;SDS011;61288;53.446;-2.266;2022-09-06T06:41:07;14.27;;;6.28;;
73100;SDS011;61288;53.446;-2.266;2022-09-06T06:43:34;15.55;;;7.38;;
73100;SDS011;61288;53.446;-2.266;2022-09-06T06:46:20;18.00;;;8.63;;
73100;SDS011;61288;53.446;-2.266;2022-09-06T06:48:47;18.27;;;8.32;;
73100;SDS011;61288;53.446;-2.266;2022-09-06T06:51:14;19.08;;;8.98;;
73100;SDS011;61288;53.446;-2.266;2022-09-06T06:53:41;17.05;;;8.60;;
73100;SDS011;61288;53.446;-2.266;2022-09-06T06:56:31;19.10;;;8.73;;
73100;SDS011;61288;53.446;-2.266;2022-09-06T06:59:06;19.90;;;9.00;;
73100;SDS011;61288;53.446;-2.266;2022-09-06T07:01:32;18.02;;;9.00;;
73100;SDS011;61288;53.446;-2.266;2022-09-06T07:03:59;18.55;;;9.20;;
73100;SDS011;61288;53.446;-2.266;2022-09-06T07:06:24;19.48;;;8.88;;
73100;SDS011;61288;53.446;-2.266;2022-09-06T07:08:52;18.75;;;8.02;;
73100;SDS011;61288;53.446;-2.266;2022-09-06T07:11:18;19.83;;;8.75;;
73100;SDS011;61288;53.446;-2.266;2022-09-06T07:13:43;19.63;;;8.82;;
73100;SDS011;61288;53.446;-2.266;2022-09-06T07:16:11;20.23;;;9.13;;
73100;SDS011;61288;53.446;-2.266;2022-09-06T07:18:39;20.00;;;8.57;;
73100;SDS011;61288;53.446;-2.266;2022-09-06T07:21:16;19.80;;;8.93;;
73100;SDS011;61288;53.446;-2.266;2022-09-06T07:23:43;20.17;;;9.15;;
73100;SDS011;61288;53.446;-2.266;2022-09-06T07:26:16;23.00;;;8.98;;
73100;SDS011;61288;53.446;-2.266;2022-09-06T07:28:43;18.95;;;7.93;;
73100;SDS011;61288;53.446;-2.266;2022-09-06T07:31:10;18.25;;;8.27;;
73100;SDS011;61288;53.446;-2.266;2022-09-06T07:33:36;22.67;;;8.90;;
73100;SDS011;61288;53.446;-2.266;2022-09-06T07:36:04;20.42;;;9.45;;
73100;SDS011;61288;53.446;-2.266;2022-09-06T07:38:31;21.02;;;9.23;;
73100;SDS011;61288;53.446;-2.266;2022-09-06T07:40:58;22.52;;;8.73;;
73100;SDS011;61288;53.446;-2.266;2022-09-06T07:43:25;21.38;;;9.35;;
73100;SDS011;61288;53.446;-2.266;2022-09-06T07:48:31;18.52;;;8.57;;
73100;SDS011;61288;53.446;-2.266;2022-09-06T07:51:05;18.38;;;8.48;;
73100;SDS011;61288;53.446;-2.266;2022-09-06T07:53:40;20.20;;;8.80;;
73100;SDS011;61288;53.446;-2.266;2022-09-06T07:56:07;19.20;;;8.35;;
73100;SDS011;61288;53.446;-2.266;2022-09-06T07:58:35;20.08;;;8.50;;
73100;SDS011;61288;53.446;-2.266;2022-09-06T08:03:55;18.35;;;8.40;;
73100;SDS011;61288;53.446;-2.266;2022-09-06T08:06:32;17.05;;;8.20;;
73100;SDS011;61288;53.446;-2.266;2022-09-06T08:08:59;19.40;;;8.02;;
73100;SDS011;61288;53.446;-2.266;2022-09-06T08:11:27;18.33;;;7.50;;
73100;SDS011;61288;53.446;-2.266;2022-09-06T08:13:55;19.42;;;8.45;;
73100;SDS011;61288;53.446;-2.266;2022-09-06T08:16:23;20.33;;;8.20;;
73100;SDS011;61288;53.446;-2.266;2022-09-06T08:18:55;19.02;;;8.95;;
73100;SDS011;61288;53.446;-2.266;2022-09-06T08:21:23;18.52;;;7.75;;
73100;SDS011;61288;53.446;-2.266;2022-09-06T08:23:57;19.58;;;8.55;;
73100;SDS011;61288;53.446;-2.266;2022-09-06T08:26:25;17.65;;;7.90;;
73100;SDS011;61288;53.446;-2.266;2022-09-06T08:28:52;21.35;;;8.45;;
73100;SDS011;61288;53.446;-2.266;2022-09-06T08:31:19;20.55;;;8.13;;
73100;SDS011;61288;53.446;-2.266;2022-09-06T08:33:44;21.80;;;8.30;;
73100;SDS011;61288;53.446;-2.266;2022-09-06T08:36:11;22.45;;;8.63;;
73100;SDS011;61288;53.446;-2.266;2022-09-06T08:38:37;21.67;;;8.45;;
73100;SDS011;61288;53.446;-2.266;2022-09-06T08:43:38;18.70;;;7.95;;
73100;SDS011;61288;53.446;-2.266;2022-09-06T08:46:04;23.00;;;8.88;;
73100;SDS011;61288;53.446;-2.266;2022-09-06T08:48:33;23.30;;;10.02;;
73100;SDS011;61288;53.446;-2.266;2022-09-06T08:53:52;21.60;;;8.52;;
73100;SDS011;61288;53.446;-2.266;2022-09-06T08:56:27;20.52;;;8.82;;
73100;SDS011;61288;53.446;-2.266;2022-09-06T09:04:11;19.35;;;8.77;;
73100;SDS011;61288;53.446;-2.266;2022-09-06T09:06:40;21.77;;;8.88;;
73100;SDS011;61288;53.446;-2.266;2022-09-06T09:09:12;21.77;;;8.80;;
73100;SDS011;61288;53.446;-2.266;2022-09-06T09:11:42;21.88;;;8.38;;
73100;SDS011;61288;53.446;-2.266;2022-09-06T09:16:42;20.90;;;9.02;;
73100;SDS011;61288;53.446;-2.266;2022-09-06T09:19:07;18.25;;;8.18;;
73100;SDS011;61288;53.446;-2.266;2022-09-06T09:21:35;21.88;;;9.00;;
73100;SDS011;61288;53.446;-2.266;2022-09-06T09:24:04;21.63;;;9.07;;
73100;SDS011;61288;53.446;-2.266;2022-09-06T09:26:48;18.75;;;8.27;;
73100;SDS011;61288;53.446;-2.266;2022-09-06T09:29:17;20.15;;;8.13;;
73100;SDS011;61288;53.446;-2.266;2022-09-06T09:31:47;23.02;;;8.60;;
73100;SDS011;61288;53.446;-2.266;2022-09-06T09:34:31;19.23;;;8.35;;
73100;SDS011;61288;53.446;-2.266;2022-09-06T09:37:12;24.83;;;9.27;;
73100;SDS011;61288;53.446;-2.266;2022-09-06T09:39:38;22.20;;;8.00;;
73100;SDS011;61288;53.446;-2.266;2022-09-06T09:42:06;22.30;;;8.57;;
73100;SDS011;61288;53.446;-2.266;2022-09-06T09:44:33;16.45;;;7.25;;
73100;SDS011;61288;53.446;-2.266;2022-09-06T09:47:02;18.15;;;7.75;;
73100;SDS011;61288;53.446;-2.266;2022-09-06T09:49:46;15.77;;;6.22;;
73100;SDS011;61288;53.446;-2.266;2022-09-06T09:52:12;14.35;;;5.40;;
73100;SDS011;61288;53.446;-2.266;2022-09-06T09:54:41;13.13;;;5.13;;
73100;SDS011;61288;53.446;-2.266;2022-09-06T09:57:09;16.80;;;5.75;;
73100;SDS011;61288;53.446;-2.266;2022-09-06T10:02:29;13.35;;;4.22;;
73100;SDS011;61288;53.446;-2.266;2022-09-06T10:05:03;10.93;;;3.90;;
73100;SDS011;61288;53.446;-2.266;2022-09-06T10:07:30;12.73;;;4.07;;
73100;SDS011;61288;53.446;-2.266;2022-09-06T10:10:02;10.15;;;3.53;;
73100;SDS011;61288;53.446;-2.266;2022-09-06T10:12:38;9.73;;;3.33;;
73100;SDS011;61288;53.446;-2.266;2022-09-06T10:15:06;12.10;;;4.20;;
73100;SDS011;61288;53.446;-2.266;2022-09-06T10:20:02;11.95;;;4.22;;
73100;SDS011;61288;53.446;-2.266;2022-09-06T10:22:38;10.60;;;4.60;;
73100;SDS011;61288;53.446;-2.266;2022-09-06T10:30:31;17.80;;;5.65;;
73100;SDS011;61288;53.446;-2.266;2022-09-06T10:33:06;16.55;;;6.40;;
73100;SDS011;61288;53.446;-2.266;2022-09-06T10:35:47;15.05;;;5.57;;
73100;SDS011;61288;53.446;-2.266;2022-09-06T10:43:11;15.05;;;5.25;;
73100;SDS011;61288;53.446;-2.266;2022-09-06T10:48:37;13.77;;;5.65;;
73100;SDS011;61288;53.446;-2.266;2022-09-06T10:51:12;15.95;;;6.30;;
73100;SDS011;61288;53.446;-2.266;2022-09-06T10:53:47;13.75;;;5.38;;
73100;SDS011;61288;53.446;-2.266;2022-09-06T11:04:39;12.43;;;5.05;;
73100;SDS011;61288;53.446;-2.266;2022-09-06T11:15:10;13.07;;;3.92;;
73100;SDS011;61288;53.446;-2.266;2022-09-06T11:20:07;9.30;;;3.60;;
73100;SDS011;61288;53.446;-2.266;2022-09-06T11:31:21;9.45;;;3.10;;
73100;SDS011;61288;53.446;-2.266;2022-09-06T11:36:44;7.63;;;2.83;;
73100;SDS011;61288;53.446;-2.266;2022-09-06T11:39:11;8.93;;;3.03;;
73100;SDS011;61288;53.446;-2.266;2022-09-06T11:41:41;9.27;;;3.17;;
73100;SDS011;61288;53.446;-2.266;2022-09-06T11:44:08;10.85;;;2.78;;
73100;SDS011;61288;53.446;-2.266;2022-09-06T11:49:07;9.32;;;2.30;;
73100;SDS011;61288;53.446;-2.266;2022-09-06T11:51:52;8.35;;;1.90;;
73100;SDS011;61288;53.446;-2.266;2022-09-06T11:57:01;6.68;;;2.33;;
73100;SDS011;61288;53.446;-2.266;2022-09-06T11:59:39;7.35;;;2.05;;
73100;SDS011;61288;53.446;-2.266;2022-09-06T12:02:30;9.68;;;2.47;;
73100;SDS011;61288;53.446;-2.266;2022-09-06T12:07:32;7.00;;;2.30;;
73100;SDS011;61288;53.446;-2.266;2022-09-06T12:13:02;8.77;;;2.80;;
73100;SDS011;61288;53.446;-2.266;2022-09-06T12:16:10;10.85;;;2.90;;
73100;SDS011;61288;53.446;-2.266;2022-09-06T12:24:01;8.20;;;2.70;;
73100;SDS011;61288;53.446;-2.266;2022-09-06T12:29:21;12.05;;;2.78;;
73100;SDS011;61288;53.446;-2.266;2022-09-06T12:31:58;11.20;;;2.80;;
73100;SDS011;61288;53.446;-2.266;2022-09-06T12:34:29;10.65;;;2.60;;
73100;SDS011;61288;53.446;-2.266;2022-09-06T12:37:02;10.68;;;2.90;;
73100;SDS011;61288;53.446;-2.266;2022-09-06T12:39:29;8.98;;;2.33;;
73100;SDS011;61288;53.446;-2.266;2022-09-06T12:41:58;11.70;;;2.90;;
73100;SDS011;61288;53.446;-2.266;2022-09-06T12:44:36;8.80;;;2.70;;
73100;SDS011;61288;53.446;-2.266;2022-09-06T12:47:28;10.77;;;3.03;;
73100;SDS011;61288;53.446;-2.266;2022-09-06T12:52:52;10.75;;;2.65;;
73100;SDS011;61288;53.446;-2.266;2022-09-06T12:57:50;8.23;;;2.63;;
73100;SDS011;61288;53.446;-2.266;2022-09-06T13:00:22;9.05;;;2.88;;
73100;SDS011;61288;53.446;-2.266;2022-09-06T13:02:52;10.98;;;2.90;;
73100;SDS011;61288;53.446;-2.266;2022-09-06T13:05:37;10.38;;;2.50;;
73100;SDS011;61288;53.446;-2.266;2022-09-06T13:08:06;8.43;;;2.50;;
73100;SDS011;61288;53.446;-2.266;2022-09-06T13:10:39;11.73;;;2.40;;
73100;SDS011;61288;53.446;-2.266;2022-09-06T13:13:08;11.05;;;2.33;;
73100;SDS011;61288;53.446;-2.266;2022-09-06T13:15:37;10.63;;;2.83;;
73100;SDS011;61288;53.446;-2.266;2022-09-06T13:18:22;8.73;;;2.50;;
73100;SDS011;61288;53.446;-2.266;2022-09-06T13:21:00;7.28;;;2.10;;
73100;SDS011;61288;53.446;-2.266;2022-09-06T13:23:28;9.52;;;2.05;;
73100;SDS011;61288;53.446;-2.266;2022-09-06T13:26:03;10.63;;;2.13;;
73100;SDS011;61288;53.446;-2.266;2022-09-06T13:28:29;7.47;;;2.00;;
73100;SDS011;61288;53.446;-2.266;2022-09-06T13:31:04;8.63;;;2.20;;
73100;SDS011;61288;53.446;-2.266;2022-09-06T13:33:42;11.57;;;2.10;;
73100;SDS011;61288;53.446;-2.266;2022-09-06T13:41:06;7.97;;;2.05;;
73100;SDS011;61288;53.446;-2.266;2022-09-06T13:46:29;11.00;;;2.67;;
73100;SDS011;61288;53.446;-2.266;2022-09-06T13:49:00;9.88;;;2.50;;
73100;SDS011;61288;53.446;-2.266;2022-09-06T13:51:26;13.93;;;2.20;;
73100;SDS011;61288;53.446;-2.266;2022-09-06T13:56:47;11.13;;;2.20;;
73100;SDS011;61288;53.446;-2.266;2022-09-06T13:59:14;9.85;;;2.30;;
73100;SDS011;61288;53.446;-2.266;2022-09-06T14:01:42;9.93;;;2.15;;
73100;SDS011;61288;53.446;-2.266;2022-09-06T14:04:11;8.75;;;2.05;;
73100;SDS011;61288;53.446;-2.266;2022-09-06T14:06:39;8.20;;;1.80;;
73100;SDS011;61288;53.446;-2.266;2022-09-06T14:09:05;12.00;;;2.20;;
73100;SDS011;61288;53.446;-2.266;2022-09-06T14:11:31;11.60;;;1.85;;
73100;SDS011;61288;53.446;-2.266;2022-09-06T14:13:57;10.38;;;1.98;;
73100;SDS011;61288;53.446;-2.266;2022-09-06T14:16:23;9.90;;;2.05;;
73100;SDS011;61288;53.446;-2.266;2022-09-06T14:18:49;9.57;;;2.00;;
73100;SDS011;61288;53.446;-2.266;2022-09-06T14:21:16;8.77;;;1.77;;
73100;SDS011;61288;53.446;-2.266;2022-09-06T14:23:41;7.05;;;1.98;;
73100;SDS011;61288;53.446;-2.266;2022-09-06T14:26:07;9.65;;;2.03;;
73100;SDS011;61288;53.446;-2.266;2022-09-06T14:28:33;10.52;;;2.00;;
73100;SDS011;61288;53.446;-2.266;2022-09-06T14:31:12;10.20;;;2.25;;
73100;SDS011;61288;53.446;-2.266;2022-09-06T14:33:43;11.30;;;2.20;;
73100;SDS011;61288;53.446;-2.266;2022-09-06T14:36:10;9.32;;;1.98;;
73100;SDS011;61288;53.446;-2.266;2022-09-06T14:38:39;9.95;;;1.92;;
73100;SDS011;61288;53.446;-2.266;2022-09-06T14:41:07;8.63;;;1.67;;
73100;SDS011;61288;53.446;-2.266;2022-09-06T14:43:33;8.45;;;2.08;;
73100;SDS011;61288;53.446;-2.266;2022-09-06T14:46:06;10.57;;;2.22;;
73100;SDS011;61288;53.446;-2.266;2022-09-06T14:48:36;10.70;;;2.05;;
73100;SDS011;61288;53.446;-2.266;2022-09-06T14:51:10;10.98;;;2.03;;
73100;SDS011;61288;53.446;-2.266;2022-09-06T14:53:38;8.90;;;1.80;;
73100;SDS011;61288;53.446;-2.266;2022-09-06T14:56:08;10.45;;;2.20;;
73100;SDS011;61288;53.446;-2.266;2022-09-06T14:58:35;8.55;;;1.92;;
73100;SDS011;61288;53.446;-2.266;2022-09-06T15:01:09;8.40;;;1.92;;
73100;SDS011;61288;53.446;-2.266;2022-09-06T15:03:40;11.60;;;2.00;;
73100;SDS011;61288;53.446;-2.266;2022-09-06T15:06:08;10.32;;;1.85;;
73100;SDS011;61288;53.446;-2.266;2022-09-06T15:08:35;8.57;;;1.95;;
73100;SDS011;61288;53.446;-2.266;2022-09-06T15:11:01;10.15;;;1.90;;
73100;SDS011;61288;53.446;-2.266;2022-09-06T15:13:30;7.72;;;1.73;;
73100;SDS011;61288;53.446;-2.266;2022-09-06T15:15:56;8.48;;;2.10;;
73100;SDS011;61288;53.446;-2.266;2022-09-06T15:18:22;8.50;;;2.10;;
73100;SDS011;61288;53.446;-2.266;2022-09-06T15:20:47;8.05;;;2.05;;
73100;SDS011;61288;53.446;-2.266;2022-09-06T15:23:14;7.57;;;1.90;;
73100;SDS011;61288;53.446;-2.266;2022-09-06T15:25:47;9.40;;;2.00;;
73100;SDS011;61288;53.446;-2.266;2022-09-06T15:28:14;7.35;;;1.67;;
73100;SDS011;61288;53.446;-2.266;2022-09-06T15:30:41;10.68;;;1.95;;
73100;SDS011;61288;53.446;-2.266;2022-09-06T15:33:07;10.10;;;2.13;;
73100;SDS011;61288;53.446;-2.266;2022-09-06T15:35:34;8.95;;;2.17;;
73100;SDS011;61288;53.446;-2.266;2022-09-06T15:38:00;10.25;;;2.20;;
73100;SDS011;61288;53.446;-2.266;2022-09-06T15:40:26;10.38;;;2.15;;
73100;SDS011;61288;53.446;-2.266;2022-09-06T15:42:52;11.10;;;2.10;;
73100;SDS011;61288;53.446;-2.266;2022-09-06T15:45:17;9.68;;;2.10;;
73100;SDS011;61288;53.446;-2.266;2022-09-06T15:47:43;10.55;;;1.83;;
73100;SDS011;61288;53.446;-2.266;2022-09-06T15:50:08;10.40;;;1.98;;
73100;SDS011;61288;53.446;-2.266;2022-09-06T15:52:34;9.20;;;2.00;;
73100;SDS011;61288;53.446;-2.266;2022-09-06T15:55:00;6.65;;;1.83;;
73100;SDS011;61288;53.446;-2.266;2022-09-06T15:57:44;10.60;;;2.30;;
73100;SDS011;61288;53.446;-2.266;2022-09-06T16:00:11;10.02;;;2.00;;
73100;SDS011;61288;53.446;-2.266;2022-09-06T16:02:37;6.90;;;1.60;;
73100;SDS011;61288;53.446;-2.266;2022-09-06T16:05:04;8.50;;;1.95;;
73100;SDS011;61288;53.446;-2.266;2022-09-06T16:07:30;9.80;;;1.80;;
73100;SDS011;61288;53.446;-2.266;2022-09-06T16:09:55;9.88;;;1.90;;
73100;SDS011;61288;53.446;-2.266;2022-09-06T16:12:23;10.75;;;2.00;;
73100;SDS011;61288;53.446;-2.266;2022-09-06T16:14:48;10.07;;;1.85;;
73100;SDS011;61288;53.446;-2.266;2022-09-06T16:17:14;8.73;;;2.08;;
73100;SDS011;61288;53.446;-2.266;2022-09-06T16:19:40;9.55;;;2.05;;
73100;SDS011;61288;53.446;-2.266;2022-09-06T16:22:05;9.70;;;2.33;;
73100;SDS011;61288;53.446;-2.266;2022-09-06T16:24:31;8.65;;;1.80;;
73100;SDS011;61288;53.446;-2.266;2022-09-06T16:26:57;8.13;;;1.90;;
73100;SDS011;61288;53.446;-2.266;2022-09-06T16:29:23;7.03;;;1.83;;
73100;SDS011;61288;53.446;-2.266;2022-09-06T16:31:48;8.43;;;1.88;;
73100;SDS011;61288;53.446;-2.266;2022-09-06T16:34:16;7.07;;;1.77;;
73100;SDS011;61288;53.446;-2.266;2022-09-06T16:36:43;7.32;;;1.90;;
73100;SDS011;61288;53.446;-2.266;2022-09-06T16:39:09;7.28;;;1.60;;
73100;SDS011;61288;53.446;-2.266;2022-09-06T16:41:39;7.78;;;1.80;;
73100;SDS011;61288;53.446;-2.266;2022-09-06T16:44:07;6.13;;;1.80;;
73100;SDS011;61288;53.446;-2.266;2022-09-06T16:46:33;7.43;;;1.95;;
73100;SDS011;61288;53.446;-2.266;2022-09-06T16:48:59;8.73;;;1.85;;
73100;SDS011;61288;53.446;-2.266;2022-09-06T16:51:27;8.10;;;1.80;;
73100;SDS011;61288;53.446;-2.266;2022-09-06T16:53:55;10.35;;;2.35;;
73100;SDS011;61288;53.446;-2.266;2022-09-06T16:56:25;11.10;;;1.98;;
73100;SDS011;61288;53.446;-2.266;2022-09-06T16:58:54;11.88;;;2.40;;
73100;SDS011;61288;53.446;-2.266;2022-09-06T17:01:21;9.30;;;2.33;;
73100;SDS011;61288;53.446;-2.266;2022-09-06T17:03:48;8.02;;;2.17;;
73100;SDS011;61288;53.446;-2.266;2022-09-06T17:06:14;9.02;;;2.00;;